Date,TemperatureHighF,TemperatureAvgF,TemperatureLowF,DewpointHighF,DewpointAvgF,DewpointLowF,HumidityHigh,HumidityAvg,HumidityLow,PressureMaxIn,PressureMinIn,WindSpeedMaxMPH,WindSpeedAvgMPH,GustSpeedMaxMPH,PrecipitationSumIn
2013-11-1,79.0,61.4,48.1,53.3,47.7,43.0,89,64,34,30.09,29.80,12,4,18,0.00
2013-11-2,68.6,57.0,46.1,44.2,39.4,35.0,76,55,30,30.28,30.08,12,5,18,0.00
2013-11-3,68.6,54.8,40.7,48.6,41.6,36.6,87,64,39,30.21,29.96,14,6,20,0.00
2013-11-4,60.3,57.6,53.3,59.0,54.3,48.6,96,89,71,30.08,29.97,11,5,17,0.78
2013-11-5,69.7,65.1,60.1,67.9,63.8,59.0,97,95,93,30.03,29.90,10,5,17,0.13
2013-11-6,70.3,55.6,44.6,68.1,48.9,38.3,95,79,55,30.36,29.93,17,8,24,0.31
2013-11-7,64.4,50.1,38.2,42.7,39.2,35.8,93,69,36,30.51,30.36,6,1,9,0.00
2013-11-8,65.1,54.0,40.8,45.8,41.9,38.0,91,66,39,30.40,30.12,10,3,15,0.00
2013-11-9,70.8,60.5,55.0,55.8,50.2,44.7,81,69,57,30.20,30.08,11,5,15,0.00
2013-11-10,66.2,56.7,48.5,54.1,49.8,45.7,91,78,62,30.33,30.19,4,0,7,0.00
2013-11-11,75.3,58.6,44.9,56.8,50.7,43.0,94,77,50,30.27,30.15,3,0,3,0.00
2013-11-12,60.1,49.5,37.0,56.5,34.7,18.6,92,60,28,30.69,30.27,15,9,28,0.00
2013-11-13,54.5,39.8,27.4,29.8,25.6,20.7,86,60,32,30.69,30.38,7,2,9,0.00
2013-11-14,61.5,47.5,31.2,47.3,33.1,26.0,83,61,29,30.39,30.01,10,6,16,0.00
2013-11-15,74.1,61.1,49.3,58.9,53.5,46.5,93,77,52,30.01,29.82,9,5,15,0.00
2013-11-16,79.7,69.8,61.4,69.1,63.6,58.1,92,81,59,29.84,29.64,13,8,21,0.00
2013-11-17,88.2,75.6,64.1,69.1,57.6,39.3,92,59,26,29.98,29.67,10,5,20,0.00
2013-11-18,71.7,63.5,55.5,38.4,33.7,29.9,45,33,25,30.15,29.98,9,5,14,0.00
2013-11-19,69.8,60.4,54.1,41.8,38.4,34.3,60,45,28,30.17,29.99,11,7,14,0.00
2013-11-20,65.9,57.5,47.2,56.3,46.3,38.4,83,67,53,30.01,29.86,13,8,21,0.00
2013-11-21,74.5,63.6,41.2,70.6,61.1,39.3,96,92,79,30.21,29.92,20,4,30,0.39
2013-11-22,41.1,35.6,34.0,39.2,33.5,31.7,95,92,87,30.47,30.20,18,12,23,0.22
2013-11-23,41.5,37.5,35.0,37.7,34.0,27.4,95,88,69,30.57,30.45,12,8,19,0.10
2013-11-24,36.1,34.2,33.1,28.5,26.4,23.1,80,73,63,30.60,30.36,10,5,16,0.01
2013-11-25,37.1,34.9,32.0,36.6,33.0,28.2,100,93,78,30.38,30.16,11,3,14,0.69
2013-11-26,52.6,41.5,35.2,37.3,32.3,25.6,94,72,45,30.39,30.16,21,12,24,0.02
2013-11-27,47.6,36.1,28.2,25.5,21.7,17.0,80,59,31,30.49,30.36,14,4,20,0.00
2013-11-28,55.1,39.2,28.0,31.8,26.8,21.1,84,63,36,30.46,30.36,6,2,9,0.00
2013-11-29,59.7,43.6,28.3,43.4,34.7,25.2,92,73,42,30.52,30.35,7,2,12,0.00
2013-11-30,67.4,53.2,41.5,53.7,46.5,38.0,91,79,61,30.36,30.14,10,4,16,0.00